Time;durP1;ratioP1;P1;durP2;ratioP2;P2;SDS_P1;SDS_P2;PMS_P1;PMS_P2;Temp;Humidity;BMP_temperature;BMP_pressure;BME280_temperature;BME280_humidity;BME280_pressure;Samples;Min_cycle;Max_cycle;Signal;HPM_P1;HPM_P2
2022/07/27 00:00:22;;;;;;;4.80;3.35;;;;;;;23.38;56.37;93309.22;5055991;28;20028;-90
2022/07/27 00:02:48;;;;;;;3.80;3.40;;;;;;;23.38;56.33;93306.47;5021166;28;20554;-89
2022/07/27 00:05:14;;;;;;;3.60;3.30;;;;;;;23.38;56.08;93303.72;5019584;28;20153;-90
2022/07/27 00:07:40;;;;;;;3.58;3.28;;;;;;;23.38;56.18;93307.22;5021072;28;20063;-90
2022/07/27 00:10:05;;;;;;;3.90;3.30;;;;;;;23.39;56.24;93308.66;5001783;28;20024;-90
2022/07/27 00:12:31;;;;;;;4.47;3.72;;;;;;;23.39;56.12;93310.69;5049596;28;20037;-89
2022/07/27 00:14:58;;;;;;;4.05;3.25;;;;;;;23.39;56.11;93311.41;5047646;28;20514;-90
2022/07/27 00:17:24;;;;;;;3.65;3.33;;;;;;;23.38;56.12;93306.47;5026667;28;20064;-89
2022/07/27 00:19:50;;;;;;;3.35;3.00;;;;;;;23.37;56.11;93316.03;5016907;28;20106;-89
2022/07/27 00:22:15;;;;;;;5.50;3.35;;;;;;;23.38;55.94;93320.28;5013003;28;20407;-89
2022/07/27 00:24:41;;;;;;;4.00;3.30;;;;;;;23.37;55.89;93322.28;5033112;28;20037;-90
2022/07/27 00:27:07;;;;;;;3.90;3.50;;;;;;;23.38;55.88;93331.31;5016818;28;20273;-90
2022/07/27 00:29:32;;;;;;;4.00;3.13;;;;;;;23.36;56.01;93331.84;5032372;28;20033;-89
2022/07/27 00:31:58;;;;;;;3.75;3.35;;;;;;;23.38;56.15;93323.03;5049727;28;20029;-91
2022/07/27 00:34:23;;;;;;;4.15;3.22;;;;;;;23.36;55.57;93326.31;5004702;28;20045;-89
2022/07/27 00:36:49;;;;;;;3.90;3.45;;;;;;;23.40;55.74;93323.19;5006886;28;20041;-90
2022/07/27 00:39:14;;;;;;;3.58;3.28;;;;;;;23.37;55.59;93319.53;5040612;28;20049;-89
2022/07/27 00:41:39;;;;;;;4.45;2.92;;;;;;;23.35;55.36;93316.56;5031636;28;20049;-89
2022/07/27 00:44:05;;;;;;;3.65;3.00;;;;;;;23.39;55.68;93318.97;5021409;28;20060;-90
2022/07/27 00:46:31;;;;;;;3.75;3.40;;;;;;;23.37;55.46;93316.78;5018260;28;20037;-90
2022/07/27 00:48:56;;;;;;;4.50;3.30;;;;;;;23.38;55.33;93309.97;5036092;28;20025;-90
2022/07/27 00:51:23;;;;;;;3.20;2.88;;;;;;;23.35;55.69;93310.31;5020777;28;20029;-91
2022/07/27 00:53:48;;;;;;;3.53;2.90;;;;;;;23.34;55.42;93306.09;5059592;28;20047;-90
2022/07/27 00:56:14;;;;;;;3.85;2.65;;;;;;;23.36;55.22;93307.03;5049968;28;20020;-90
2022/07/27 00:58:40;;;;;;;3.45;3.15;;;;;;;23.34;55.46;93304.06;5076979;28;20036;-90
2022/07/27 01:01:06;;;;;;;3.45;3.05;;;;;;;23.35;55.55;93307.56;5057847;28;20028;-90
2022/07/27 01:03:31;;;;;;;3.42;3.08;;;;;;;23.36;55.29;93300.75;5052762;28;20095;-89
2022/07/27 01:05:57;;;;;;;3.50;3.10;;;;;;;23.33;55.36;93299.84;5038647;28;20045;-89
2022/07/27 01:08:23;;;;;;;3.42;3.13;;;;;;;23.34;55.41;93304.06;5001673;28;20037;-89
2022/07/27 01:10:48;;;;;;;3.20;2.90;;;;;;;23.34;55.43;93306.81;5036469;28;20071;-90
2022/07/27 01:13:14;;;;;;;4.00;3.60;;;;;;;23.34;55.29;93311.59;5047481;28;20644;-90
2022/07/27 01:15:41;;;;;;;3.92;3.25;;;;;;;23.33;55.11;93302.59;5042317;28;20049;-91
2022/07/27 01:18:11;;;;;;;4.72;3.30;;;;;;;23.33;54.80;93305.34;5042064;28;20013;-90
2022/07/27 01:20:38;;;;;;;4.38;3.40;;;;;;;23.33;54.89;93304.59;5025402;28;20383;-91
2022/07/27 01:23:03;;;;;;;3.88;3.45;;;;;;;23.33;55.15;93302.59;5026279;28;20517;-90
2022/07/27 01:25:28;;;;;;;3.50;2.97;;;;;;;23.33;55.07;93310.88;5040763;28;20048;-89
2022/07/27 01:27:54;;;;;;;3.70;3.40;;;;;;;23.33;54.99;93304.59;5041918;28;20037;-90
2022/07/27 01:30:25;;;;;;;3.75;3.40;;;;;;;23.33;54.94;93294.31;5059503;28;20233;-90
2022/07/27 01:33:04;;;;;;;3.28;2.97;;;;;;;23.32;54.99;93303.88;5040181;28;20032;-90
2022/07/27 01:35:29;;;;;;;4.65;3.17;;;;;;;23.32;54.82;93294.84;5037930;28;20047;-89
2022/07/27 01:37:55;;;;;;;3.38;3.05;;;;;;;23.31;54.76;93285.84;5039499;28;20084;-89
2022/07/27 01:40:21;;;;;;;4.32;3.30;;;;;;;23.32;54.85;93292.09;5039299;28;20422;-89
2022/07/27 01:42:47;;;;;;;3.47;3.00;;;;;;;23.29;54.90;93302.19;5043833;28;20379;-90
2022/07/27 01:45:12;;;;;;;3.22;2.92;;;;;;;23.31;54.67;93291.34;5040876;28;20055;-89
2022/07/27 01:47:38;;;;;;;3.40;3.10;;;;;;;23.32;54.60;93289.34;5060128;28;20040;-90
2022/07/27 01:50:04;;;;;;;3.75;3.30;;;;;;;23.30;54.65;93286.38;5045432;28;20032;-90
2022/07/27 01:52:30;;;;;;;4.57;3.58;;;;;;;23.30;54.54;93289.88;5056660;28;20032;-89
2022/07/27 01:54:55;;;;;;;3.42;3.13;;;;;;;23.29;54.65;93293.94;5037445;28;20055;-89
2022/07/27 01:57:21;;;;;;;3.20;2.83;;;;;;;23.30;54.51;93287.13;5040347;28;20028;-90
2022/07/27 01:59:46;;;;;;;5.13;3.13;;;;;;;23.29;54.70;93282.16;5060370;28;20512;-90
2022/07/27 02:02:14;;;;;;;4.15;3.08;;;;;;;23.30;54.51;93276.09;5058093;28;20048;-90
2022/07/27 02:04:40;;;;;;;3.67;3.15;;;;;;;23.29;54.39;93279.41;5027273;28;20032;-90
2022/07/27 02:07:06;;;;;;;5.13;3.40;;;;;;;23.29;54.37;93284.91;5021026;28;20371;-89
2022/07/27 02:09:31;;;;;;;4.80;3.40;;;;;;;23.31;54.52;93285.09;5054019;28;20041;-89
2022/07/27 02:14:41;;;;;;;3.03;2.72;;;;;;;23.31;54.12;93274.06;5041615;28;20052;-89
2022/07/27 02:17:06;;;;;;;4.28;3.03;;;;;;;23.30;54.22;93275.34;5036793;28;20041;-89
2022/07/27 02:19:31;;;;;;;3.60;3.13;;;;;;;23.29;54.28;93282.91;5032143;28;20446;-90
2022/07/27 02:21:57;;;;;;;3.38;3.08;;;;;;;23.28;54.19;93269.66;5034977;28;20499;-90
2022/07/27 02:24:22;;;;;;;3.45;3.08;;;;;;;23.28;54.04;93266.88;5046807;28;20509;-90
2022/07/27 02:26:48;;;;;;;3.88;2.97;;;;;;;23.29;54.08;93265.59;5061406;28;20029;-90
2022/07/27 02:29:13;;;;;;;5.15;3.78;;;;;;;23.27;53.96;93268.91;5073161;28;20032;-90
2022/07/27 02:31:38;;;;;;;4.93;3.50;;;;;;;23.27;53.91;93265.41;5054328;28;20062;-89
2022/07/27 02:34:04;;;;;;;3.80;3.35;;;;;;;23.25;54.04;93269.44;5070343;28;20036;-90
2022/07/27 02:36:29;;;;;;;3.03;2.80;;;;;;;23.27;53.92;93268.91;5035441;28;20209;-89
2022/07/27 02:38:55;;;;;;;3.22;2.85;;;;;;;23.27;53.95;93268.16;5028609;28;20044;-90
2022/07/27 02:41:21;;;;;;;3.85;2.83;;;;;;;23.25;54.02;93272.22;5054894;28;20052;-90
2022/07/27 02:43:55;;;;;;;3.67;3.38;;;;;;;23.27;54.05;93268.91;5053064;28;20105;-90
2022/07/27 02:46:20;;;;;;;3.40;3.10;;;;;;;23.24;53.92;93265.22;5052600;28;20145;-90
2022/07/27 02:48:46;;;;;;;5.32;3.17;;;;;;;23.24;53.98;93267.97;5038160;28;20502;-90
2022/07/27 02:51:13;;;;;;;3.60;3.17;;;;;;;23.24;53.76;93278.28;5022223;28;20041;-91
2022/07/27 02:53:39;;;;;;;6.68;3.50;;;;;;;23.26;53.95;93275.72;5072106;28;20120;-90
2022/07/27 02:56:04;;;;;;;6.32;3.15;;;;;;;23.24;53.79;93273.50;5036972;28;20040;-89
2022/07/27 02:58:30;;;;;;;3.70;3.20;;;;;;;23.27;53.90;93281.97;5019859;28;20048;-90
2022/07/27 03:00:55;;;;;;;7.35;3.00;;;;;;;23.27;54.03;93271.66;5037762;28;20047;-90
2022/07/27 03:03:20;;;;;;;3.13;2.83;;;;;;;23.25;53.67;93277.00;5046733;28;20045;-90
2022/07/27 03:05:47;;;;;;;3.13;2.83;;;;;;;23.24;54.18;93284.53;5030733;28;20574;-90
2022/07/27 03:08:12;;;;;;;3.70;3.20;;;;;;;23.25;53.60;93291.50;5000770;28;20037;-90
2022/07/27 03:10:38;;;;;;;3.35;3.05;;;;;;;23.24;53.82;93286.53;5000700;28;20424;-89
2022/07/27 03:13:04;;;;;;;3.40;3.10;;;;;;;23.23;53.73;93285.06;4989748;28;20435;-90
2022/07/27 03:15:31;;;;;;;3.35;3.05;;;;;;;23.24;53.61;93283.78;5049180;28;20478;-89
2022/07/27 03:17:57;;;;;;;3.33;2.90;;;;;;;23.21;53.66;93282.84;4995831;28;20076;-90
2022/07/27 03:20:22;;;;;;;3.55;3.25;;;;;;;23.23;53.84;93287.81;4981552;28;20040;-90
2022/07/27 03:22:48;;;;;;;3.90;3.28;;;;;;;23.23;53.71;93285.06;4979345;28;20022;-89
2022/07/27 03:25:13;;;;;;;3.92;3.10;;;;;;;23.24;53.49;93284.53;5003090;28;20040;-90
2022/07/27 03:27:38;;;;;;;4.30;3.10;;;;;;;23.23;53.86;93276.78;4999034;28;20049;-90
2022/07/27 03:30:05;;;;;;;3.88;3.53;;;;;;;23.25;53.65;93279.75;4976016;28;20053;-90
2022/07/27 03:32:30;;;;;;;4.68;4.28;;;;;;;23.23;53.50;93288.56;4976124;28;20129;-90
2022/07/27 03:34:56;;;;;;;3.67;3.38;;;;;;;23.21;53.71;93280.09;4992974;28;20042;-90
2022/07/27 03:37:21;;;;;;;4.45;3.97;;;;;;;23.24;53.62;93290.03;5019245;28;20538;-90
2022/07/27 03:39:47;;;;;;;5.28;3.10;;;;;;;23.23;53.31;93279.56;5064360;28;20055;-90
2022/07/27 03:42:12;;;;;;;4.72;3.60;;;;;;;23.23;53.65;93285.81;5057729;28;20390;-90
2022/07/27 03:44:37;;;;;;;4.00;3.67;;;;;;;23.23;53.29;93294.06;5054504;28;20032;-89
2022/07/27 03:47:03;;;;;;;5.00;3.88;;;;;;;23.23;53.36;93301.63;5045832;28;20033;-90
2022/07/27 03:49:29;;;;;;;4.20;3.80;;;;;;;23.21;53.23;93301.41;5039204;28;20487;-90
2022/07/27 03:51:54;;;;;;;4.78;3.90;;;;;;;23.23;53.24;93298.84;5038972;28;20037;-90
2022/07/27 03:54:20;;;;;;;3.55;3.25;;;;;;;23.22;53.55;93297.38;5073421;28;20052;-90
2022/07/27 03:56:45;;;;;;;5.53;3.90;;;;;;;23.23;53.01;93298.84;5040994;28;20047;-90
2022/07/27 03:59:11;;;;;;;4.05;3.58;;;;;;;23.23;53.13;93293.34;5057437;28;20110;-90
2022/07/27 04:01:36;;;;;;;4.57;4.15;;;;;;;23.23;52.81;93294.06;5039253;28;20033;-89
2022/07/27 04:04:02;;;;;;;10.80;4.45;;;;;;;23.20;53.13;93297.94;5034767;28;20037;-90
2022/07/27 04:06:27;;;;;;;6.50;4.25;;;;;;;23.21;52.71;93293.88;5062339;28;20041;-89
2022/07/27 04:08:52;;;;;;;4.45;3.88;;;;;;;23.29;52.49;93299.44;5052885;28;20055;-90
2022/07/27 04:11:19;;;;;;;6.00;3.83;;;;;;;23.19;52.95;93296.44;5038500;28;20036;-92
2022/07/27 04:13:47;;;;;;;5.68;3.80;;;;;;;23.09;53.05;93300.28;5037656;28;20025;-90
2022/07/27 04:16:13;;;;;;;5.53;4.63;;;;;;;23.05;52.85;93297.88;5023566;28;20071;-90
2022/07/27 04:18:38;;;;;;;5.20;4.70;;;;;;;23.09;52.42;93295.50;5024181;28;20033;-90
2022/07/27 04:21:05;;;;;;;22.23;7.85;;;;;;;22.98;52.58;93287.53;5041835;28;20029;-90
2022/07/27 04:23:31;;;;;;;8.63;6.60;;;;;;;23.06;51.91;93288.31;5073970;28;20063;-90
2022/07/27 04:25:56;;;;;;;21.25;11.25;;;;;;;22.95;52.11;93274.81;5058383;28;20056;-92
2022/07/27 04:28:22;;;;;;;44.38;25.02;;;;;;;22.86;51.98;93280.88;5059939;28;20036;-91
2022/07/27 04:30:48;;;;;;;51.55;27.63;;;;;;;22.93;52.04;93277.41;5038691;28;20013;-95
2022/07/27 04:33:15;;;;;;;80.95;54.67;;;;;;;22.95;51.99;93274.81;5063218;28;20036;-89
2022/07/27 04:35:51;;;;;;;153.43;123.35;;;;;;;22.95;52.06;93279.63;5053311;28;20115;-94
2022/07/27 04:38:23;;;;;;;101.18;63.60;;;;;;;22.85;51.65;93277.38;5061139;28;20044;-92
2022/07/27 04:40:49;;;;;;;83.68;50.90;;;;;;;22.82;51.73;93294.25;5058158;28;20039;-92
2022/07/27 04:43:16;;;;;;;96.97;59.30;;;;;;;22.88;51.73;93292.09;5024934;28;20037;-90
2022/07/27 04:45:43;;;;;;;106.97;67.07;;;;;;;22.92;51.12;93284.22;5060966;28;20033;-91
2022/07/27 04:48:22;;;;;;;74.13;42.78;;;;;;;22.92;51.05;93300.00;5059040;28;20040;-91
2022/07/27 04:50:54;;;;;;;60.50;33.92;;;;;;;22.85;50.72;93293.16;5068964;28;20051;-92
2022/07/27 04:53:30;;;;;;;76.68;36.80;;;;;;;22.92;50.55;93281.44;5026769;28;20044;-90
2022/07/27 04:55:57;;;;;;;76.65;34.45;;;;;;;22.86;49.47;93294.66;5010581;28;20700;-92
2022/07/27 04:58:33;;;;;;;54.77;22.10;;;;;;;22.72;48.42;93293.25;5025336;28;20033;-92
2022/07/27 05:01:00;;;;;;;25.83;14.63;;;;;;;22.61;48.26;93297.03;5032755;28;20048;-91
2022/07/27 05:03:27;;;;;;;49.30;27.40;;;;;;;22.43;48.18;93303.53;5023805;28;20040;-90
2022/07/27 05:06:05;;;;;;;162.38;88.40;;;;;;;22.43;48.41;93315.28;5046342;28;20041;-93
2022/07/27 05:08:31;;;;;;;50.20;29.00;;;;;;;22.35;48.14;93316.50;4997994;28;20153;-91
2022/07/27 05:10:56;;;;;;;28.50;15.48;;;;;;;22.20;47.78;93319.88;5002120;28;20182;-89
2022/07/27 05:13:23;;;;;;;22.42;15.25;;;;;;;22.26;48.04;93311.47;5000586;28;20030;-89
2022/07/27 05:15:49;;;;;;;25.75;13.13;;;;;;;22.16;48.13;93309.19;5009344;28;20037;-91
2022/07/27 05:18:24;;;;;;;123.75;26.90;;;;;;;22.23;48.29;93310.53;5003269;28;20053;-92
2022/07/27 05:20:50;;;;;;;35.17;16.67;;;;;;;22.18;48.34;93312.13;4993090;28;20033;-90
2022/07/27 05:23:16;;;;;;;28.45;15.20;;;;;;;22.05;48.52;93320.47;5000847;28;20041;-90
2022/07/27 05:25:42;;;;;;;28.88;17.70;;;;;;;21.92;48.20;93314.25;5034495;28;20033;-89
2022/07/27 05:28:11;;;;;;;34.42;17.58;;;;;;;21.94;48.25;93317.94;5000810;28;20041;-93
2022/07/27 05:30:37;;;;;;;28.33;16.00;;;;;;;22.08;48.15;93319.41;5000664;28;20044;-90
2022/07/27 05:33:03;;;;;;;28.40;14.90;;;;;;;21.96;48.76;93315.41;5022595;28;20033;-91
2022/07/27 05:35:38;;;;;;;22.63;15.65;;;;;;;21.94;48.89;93323.44;4985476;28;20037;-91
2022/07/27 05:38:04;;;;;;;23.60;17.90;;;;;;;21.89;49.09;93316.81;4977497;28;20119;-91
2022/07/27 05:40:30;;;;;;;29.83;20.75;;;;;;;21.95;49.01;93319.44;5011326;28;20046;-88
2022/07/27 05:42:57;;;;;;;57.22;33.72;;;;;;;21.98;49.21;93325.88;5010543;28;20092;-89
2022/07/27 05:45:24;;;;;;;46.75;29.52;;;;;;;21.88;49.22;93317.34;5008084;28;20049;-90
2022/07/27 05:47:51;;;;;;;68.03;39.75;;;;;;;21.91;49.02;93319.03;5014054;28;20040;-92
2022/07/27 05:50:16;;;;;;;58.42;36.20;;;;;;;21.98;49.41;93323.13;5058801;28;20033;-89
2022/07/27 05:52:43;;;;;;;50.17;36.00;;;;;;;21.81;49.37;93327.00;5067656;28;20039;-91
2022/07/27 05:55:09;;;;;;;58.90;37.83;;;;;;;21.95;48.99;93327.69;5028772;28;20072;-89
2022/07/27 05:57:36;;;;;;;53.75;36.90;;;;;;;21.96;48.94;93318.16;5053501;28;20128;-90
2022/07/27 06:00:05;;;;;;;53.40;38.97;;;;;;;21.82;49.27;93325.00;5020442;28;21383;-88
2022/07/27 06:02:30;;;;;;;58.38;38.03;;;;;;;21.90;49.35;93326.53;5034952;28;20061;-89
2022/07/27 06:04:56;;;;;;;65.72;44.03;;;;;;;21.78;49.41;93324.59;5052533;28;20182;-89
2022/07/27 06:10:06;;;;;;;47.00;35.10;;;;;;;21.78;49.78;93324.59;5047297;28;20123;-89
2022/07/27 06:12:39;;;;;;;70.95;52.03;;;;;;;21.94;49.64;93330.97;5056350;28;20108;-88
2022/07/27 06:15:05;;;;;;;43.08;32.00;;;;;;;21.87;49.71;93333.09;5031947;28;20037;-92
2022/07/27 06:17:31;;;;;;;42.75;30.80;;;;;;;21.94;49.63;93333.72;5014951;28;20037;-88
2022/07/27 06:19:56;;;;;;;38.50;31.42;;;;;;;21.86;49.10;93326.16;5033481;28;20048;-91
2022/07/27 06:22:22;;;;;;;38.22;30.00;;;;;;;21.92;49.22;93325.25;5009717;28;20274;-93
2022/07/27 06:24:47;;;;;;;41.83;29.05;;;;;;;21.84;49.70;93327.97;5033801;28;20044;-87
2022/07/27 06:27:13;;;;;;;35.92;27.75;;;;;;;22.04;49.05;93330.00;5019456;28;20041;-89
2022/07/27 06:29:39;;;;;;;38.33;28.33;;;;;;;21.98;49.42;93323.88;5012997;28;20044;-89
2022/07/27 06:32:05;;;;;;;43.55;28.10;;;;;;;21.98;49.80;93315.59;5030765;28;20100;-91
2022/07/27 06:34:31;;;;;;;49.05;29.30;;;;;;;21.99;49.84;93330.84;5013332;28;20037;-90
2022/07/27 06:36:58;;;;;;;36.78;26.65;;;;;;;21.96;50.00;93323.66;5026587;28;20574;-92
2022/07/27 06:39:25;;;;;;;52.33;30.38;;;;;;;22.10;49.55;93330.59;5035858;28;20037;-91
2022/07/27 06:41:50;;;;;;;51.35;28.77;;;;;;;22.09;49.49;93317.38;5010434;28;20073;-90
2022/07/27 06:44:16;;;;;;;57.53;28.85;;;;;;;22.13;49.35;93324.03;5012450;28;20103;-91
2022/07/27 06:46:42;;;;;;;186.57;109.40;;;;;;;22.10;49.22;93313.34;5031061;28;20033;-89
2022/07/27 06:49:08;;;;;;;108.95;72.85;;;;;;;22.07;48.88;93323.44;5030299;28;20137;-87
2022/07/27 06:51:33;;;;;;;62.67;36.75;;;;;;;22.00;48.96;93315.06;5010985;28;20037;-89
2022/07/27 06:54:07;;;;;;;102.50;46.83;;;;;;;22.06;48.97;93319.22;4992911;28;20040;-91
2022/07/27 06:56:32;;;;;;;94.40;48.33;;;;;;;21.98;49.33;93326.63;5011176;28;20030;-93
2022/07/27 06:58:58;;;;;;;75.93;41.33;;;;;;;22.02;49.04;93318.06;5022572;28;20582;-92
2022/07/27 07:01:23;;;;;;;65.47;35.53;;;;;;;21.99;49.15;93328.09;4998516;28;20038;-90
2022/07/27 07:03:50;;;;;;;57.08;35.25;;;;;;;22.02;48.94;93312.56;5010260;28;20379;-89
2022/07/27 07:06:16;;;;;;;39.83;29.27;;;;;;;21.98;48.77;93317.63;4997941;28;20029;-92
2022/07/27 07:08:42;;;;;;;47.92;26.98;;;;;;;22.01;48.87;93314.56;4998101;28;20158;-94
2022/07/27 07:11:10;;;;;;;32.88;23.25;;;;;;;21.97;49.07;93308.63;5014451;28;20042;-90
2022/07/27 07:13:36;;;;;;;30.38;20.40;;;;;;;21.81;49.25;93302.25;5009804;28;20094;-95
2022/07/27 07:16:01;;;;;;;34.88;23.05;;;;;;;21.83;49.13;93315.47;5016593;28;20045;-90
2022/07/27 07:18:28;;;;;;;64.07;33.30;;;;;;;21.95;49.25;93304.94;4993787;28;20037;-94
2022/07/27 07:20:53;;;;;;;46.47;22.38;;;;;;;21.98;49.25;93303.84;5020093;28;20037;-94
2022/07/27 07:23:19;;;;;;;61.33;35.13;;;;;;;22.00;49.47;93306.81;5023463;28;20034;-93
2022/07/27 07:25:53;;;;;;;94.97;48.15;;;;;;;22.15;49.04;93310.47;5012562;28;20045;-95
2022/07/27 07:28:21;;;;;;;68.07;35.55;;;;;;;22.10;49.18;93300.31;5020225;28;20033;-93
2022/07/27 07:30:48;;;;;;;58.30;30.65;;;;;;;22.09;48.95;93303.59;4998011;28;20064;-94
2022/07/27 07:33:14;;;;;;;36.15;20.27;;;;;;;22.13;49.10;93299.25;5013211;28;20095;-90
2022/07/27 07:35:40;;;;;;;52.75;21.23;;;;;;;22.08;48.72;93299.41;5000882;28;20041;-91
2022/07/27 07:38:09;;;;;;;53.83;23.00;;;;;;;22.11;48.98;93303.81;5014484;28;20041;-91
2022/07/27 07:40:35;;;;;;;59.13;25.10;;;;;;;22.25;48.80;93299.72;5030149;28;20038;-94
2022/07/27 07:43:01;;;;;;;52.25;25.88;;;;;;;22.20;49.37;93300.59;4998129;28;20053;-93
2022/07/27 07:45:28;;;;;;;38.60;21.83;;;;;;;22.25;49.06;93310.75;4998505;28;20053;-91
2022/07/27 07:48:04;;;;;;;35.92;21.00;;;;;;;22.22;49.14;93303.56;5031144;28;20044;-95
2022/07/27 07:50:30;;;;;;;35.17;19.65;;;;;;;22.22;49.28;93306.31;5013357;28;20033;-90
2022/07/27 07:52:55;;;;;;;30.48;17.58;;;;;;;22.21;48.85;93297.31;5017234;28;20491;-94
2022/07/27 07:55:22;;;;;;;29.63;16.65;;;;;;;22.29;48.81;93307.66;5016843;28;20047;-94
2022/07/27 07:57:48;;;;;;;33.97;13.90;;;;;;;22.16;48.77;93297.44;5012607;28;20029;-92
2022/07/27 08:00:14;;;;;;;26.70;14.68;;;;;;;22.12;48.85;93292.25;5013286;28;20043;-93
2022/07/27 08:02:53;;;;;;;28.83;13.70;;;;;;;22.19;48.77;93290.84;5034751;28;20048;-91
2022/07/27 08:05:20;;;;;;;40.30;16.80;;;;;;;22.13;48.70;93290.97;5023617;28;20057;-95
2022/07/27 08:07:47;;;;;;;32.03;13.98;;;;;;;22.05;48.23;93290.19;4999776;28;20083;-92
2022/07/27 08:10:19;;;;;;;19.55;13.93;;;;;;;22.13;48.60;93295.75;5034161;28;20498;-91
2022/07/27 08:12:46;;;;;;;20.08;12.52;;;;;;;22.09;48.58;93295.34;5012280;28;20045;-93
2022/07/27 08:15:13;;;;;;;29.17;14.18;;;;;;;22.13;48.58;93295.75;5010868;28;20053;-96
2022/07/27 08:17:38;;;;;;;28.70;14.90;;;;;;;22.12;48.73;93292.25;5032700;28;20120;-90
2022/07/27 08:20:06;;;;;;;37.80;20.92;;;;;;;22.11;49.22;93288.03;4988345;28;20153;-95
2022/07/27 08:22:40;;;;;;;81.50;23.30;;;;;;;22.21;49.02;93288.31;5029532;28;20148;-90
2022/07/27 08:25:05;;;;;;;41.25;19.67;;;;;;;22.18;49.43;93289.38;5032065;28;20045;-94
2022/07/27 08:27:31;;;;;;;35.08;19.10;;;;;;;22.30;49.35;93287.09;5013132;28;20037;-93
2022/07/27 08:29:56;;;;;;;33.88;16.90;;;;;;;22.29;49.25;93291.88;5050004;28;20185;-93
2022/07/27 08:32:23;;;;;;;32.35;16.88;;;;;;;22.29;49.10;93291.88;5036828;28;20041;-95
2022/07/27 08:34:51;;;;;;;262.58;59.03;;;;;;;22.37;49.18;93294.66;5053809;28;20030;-93
2022/07/27 08:37:16;;;;;;;69.70;26.00;;;;;;;22.36;49.24;93302.19;5040428;28;20034;-92
2022/07/27 08:39:44;;;;;;;48.42;20.52;;;;;;;22.42;49.21;93291.78;5041620;28;20048;-91
2022/07/27 08:42:13;;;;;;;47.55;17.23;;;;;;;22.43;49.08;93298.75;5028343;28;20074;-94
2022/07/27 08:44:39;;;;;;;46.40;20.85;;;;;;;22.34;49.08;93299.22;5038791;28;20040;-90
2022/07/27 08:47:09;;;;;;;26.77;15.50;;;;;;;22.28;49.33;93298.66;5050123;28;20048;-93
2022/07/27 08:49:41;;;;;;;41.08;21.40;;;;;;;22.34;49.39;93304.72;5021737;28;20047;-95
2022/07/27 08:52:11;;;;;;;48.45;27.75;;;;;;;22.33;50.07;93297.00;5078840;28;20067;-92
2022/07/27 08:54:45;;;;;;;50.80;28.47;;;;;;;22.34;49.83;93299.22;5022187;28;20052;-91
2022/07/27 08:57:12;;;;;;;50.25;26.10;;;;;;;22.40;49.65;93301.84;5057150;28;20037;-90
2022/07/27 08:59:39;;;;;;;54.85;29.38;;;;;;;22.39;49.49;93303.84;5052280;28;20045;-92
2022/07/27 09:02:08;;;;;;;51.22;28.23;;;;;;;22.39;49.76;93303.13;4998914;28;20021;-91
2022/07/27 09:04:33;;;;;;;58.53;37.10;;;;;;;22.41;49.97;93298.56;5037159;28;20030;-92
2022/07/27 09:06:59;;;;;;;62.45;29.30;;;;;;;22.41;49.91;93300.56;5055325;28;20046;-92
2022/07/27 09:09:24;;;;;;;53.45;28.05;;;;;;;22.42;50.12;93310.31;5030039;28;20038;-92
2022/07/27 09:12:09;;;;;;;52.28;26.50;;;;;;;22.48;49.62;93297.13;4985073;28;20022;-96
2022/07/27 09:14:35;;;;;;;37.30;23.63;;;;;;;22.38;49.61;93301.63;5031160;28;20052;-91
2022/07/27 09:17:21;;;;;;;56.10;23.17;;;;;;;22.42;49.53;93310.31;5024007;28;20032;-92
2022/07/27 09:19:59;;;;;;;34.60;19.05;;;;;;;22.41;49.71;93306.81;5026756;28;20041;-95
2022/07/27 09:22:37;;;;;;;45.10;22.42;;;;;;;22.42;49.63;93305.53;5018782;28;20102;-93
2022/07/27 09:25:04;;;;;;;56.67;26.02;;;;;;;22.48;49.71;93305.41;5015731;28;20106;-91
2022/07/27 09:27:30;;;;;;;51.78;26.38;;;;;;;22.49;49.71;93304.13;5014655;28;20063;-91
2022/07/27 09:30:04;;;;;;;45.85;26.05;;;;;;;22.50;49.90;93309.09;5054125;28;20060;-95
2022/07/27 09:32:29;;;;;;;59.45;31.00;;;;;;;22.53;49.74;93305.25;5040167;28;20056;-94
2022/07/27 09:34:58;;;;;;;58.85;31.27;;;;;;;22.53;50.03;93305.25;5011218;28;20034;-95
2022/07/27 09:37:26;;;;;;;52.15;29.90;;;;;;;22.56;49.91;93315.19;5049146;28;20077;-94
2022/07/27 09:40:09;;;;;;;32.58;20.08;;;;;;;22.55;50.13;93310.22;5007604;28;20045;-92
2022/07/27 09:42:36;;;;;;;23.52;15.77;;;;;;;22.57;50.21;93311.16;5039365;28;20041;-91
2022/07/27 09:45:03;;;;;;;25.65;15.73;;;;;;;22.63;49.60;93316.53;5038460;28;20037;-93
2022/07/27 09:47:30;;;;;;;52.47;18.88;;;;;;;22.61;49.57;93321.09;5053739;28;20037;-93
2022/07/27 09:50:16;;;;;;;32.65;18.38;;;;;;;22.56;49.90;93317.19;5036759;28;20096;-93
2022/07/27 09:52:42;;;;;;;28.63;15.68;;;;;;;22.55;50.21;93321.97;5058706;28;20116;-93
2022/07/27 09:55:20;;;;;;;22.95;12.20;;;;;;;22.57;50.26;93319.41;5008454;28;20649;-91
2022/07/27 09:57:53;;;;;;;24.08;14.80;;;;;;;22.64;50.16;93315.25;5068786;28;20036;-95
2022/07/27 10:00:19;;;;;;;48.33;17.98;;;;;;;22.62;50.25;93319.81;5075570;28;20060;-95
2022/07/27 10:03:00;;;;;;;24.73;14.35;;;;;;;22.62;50.21;93319.81;5072670;28;20068;-94
2022/07/27 10:05:26;;;;;;;37.75;13.77;;;;;;;22.59;50.88;93327.13;5026660;23;20061;-95
2022/07/27 10:07:52;;;;;;;38.63;15.50;;;;;;;22.64;50.86;93323.50;4992736;28;20078;-93
2022/07/27 10:10:28;;;;;;;52.00;19.70;;;;;;;22.60;51.40;93316.84;5036033;28;20092;-92
2022/07/27 10:13:24;;;;;;;34.08;16.90;;;;;;;22.60;51.31;93319.63;4961871;28;20041;-95
2022/07/27 10:15:54;;;;;;;19.63;12.63;;;;;;;22.64;51.46;93315.25;4963842;28;20039;-94
2022/07/27 10:18:36;;;;;;;19.98;11.90;;;;;;;22.63;51.73;93326.81;4919046;29;20056;-94
2022/07/27 10:21:07;;;;;;;15.70;11.13;;;;;;;22.58;51.59;93322.91;4906181;29;20035;-95
2022/07/27 10:23:36;;;;;;;14.27;10.57;;;;;;;22.64;51.51;93326.25;4889271;29;20044;-93
2022/07/27 10:26:17;;;;;;;14.10;10.18;;;;;;;22.67;51.44;93333.44;4861618;29;20074;-94
2022/07/27 10:28:49;;;;;;;;;;;;;;;22.67;51.26;93338.97;4892271;29;20148;-93
2022/07/27 10:31:17;;;;;;;11.63;9.63;;;;;;;22.65;51.42;93333.25;4877801;29;19920;-93
2022/07/27 10:33:45;;;;;;;16.85;9.23;;;;;;;22.65;51.90;93333.25;4843271;29;20040;-93
2022/07/27 10:36:29;;;;;;;11.95;9.50;;;;;;;22.70;51.87;93331.63;4876019;29;20082;-93
2022/07/27 10:38:58;;;;;;;14.68;9.35;;;;;;;22.68;51.69;93336.94;4893543;29;20049;-91
2022/07/27 10:41:36;;;;;;;11.13;9.20;;;;;;;22.69;51.81;93336.41;4860053;29;20041;-92
2022/07/27 10:44:15;;;;;;;11.50;8.98;;;;;;;22.69;51.76;93325.38;4898501;29;20044;-93
2022/07/27 10:46:49;;;;;;;21.00;14.15;;;;;;;22.64;51.59;93323.50;4903010;29;20036;-93
2022/07/27 10:49:24;;;;;;;10.80;9.30;;;;;;;22.66;51.36;93331.22;4897548;29;20565;-92
2022/07/27 10:51:52;;;;;;;55.65;26.55;;;;;;;22.69;50.58;93325.38;4864477;29;20045;-93
2022/07/27 10:54:26;;;;;;;15.57;10.40;;;;;;;22.63;50.59;93326.81;4916992;29;20036;-92
2022/07/27 10:56:55;;;;;;;36.17;17.88;;;;;;;22.60;50.81;93323.09;4934706;28;20039;-92
2022/07/27 10:59:38;;;;;;;45.00;22.42;;;;;;;22.58;50.80;93320.16;4953780;28;20195;-92
2022/07/27 11:02:05;;;;;;;33.53;19.40;;;;;;;22.66;50.85;93322.97;4973343;28;20084;-91
2022/07/27 11:04:31;;;;;;;32.50;18.88;;;;;;;22.66;50.32;93315.44;5000355;23;20037;-87
2022/07/27 11:06:59;;;;;;;38.40;22.77;;;;;;;22.60;50.69;93317.59;5030986;28;20530;-88
2022/07/27 11:09:35;;;;;;;72.95;36.22;;;;;;;22.66;50.22;93317.47;5020692;28;20500;-89
2022/07/27 11:12:04;;;;;;;53.47;26.80;;;;;;;22.67;50.07;93316.19;4997779;28;20404;-92
2022/07/27 11:14:30;;;;;;;42.67;24.92;;;;;;;22.64;50.03;93314.50;5013789;28;20061;-92
2022/07/27 11:16:56;;;;;;;55.80;29.98;;;;;;;22.60;50.49;93320.34;5032933;28;20048;-92
2022/07/27 11:19:22;;;;;;;56.15;23.23;;;;;;;22.74;50.05;93313.47;5015171;28;20084;-92
2022/07/27 11:21:48;;;;;;;61.00;27.25;;;;;;;22.72;49.95;93309.78;5015316;28;20435;-92
2022/07/27 11:24:16;;;;;;;70.05;26.48;;;;;;;22.66;49.92;93320.94;5015208;28;20040;-92
2022/07/27 11:26:43;;;;;;;46.65;20.15;;;;;;;22.68;50.08;93315.63;5013662;28;20037;-93
2022/07/27 11:29:09;;;;;;;48.70;19.92;;;;;;;22.72;49.80;93309.78;5016089;28;20104;-92
2022/07/27 11:31:36;;;;;;;46.75;18.02;;;;;;;22.74;49.71;93318.97;5013612;28;20108;-92